MV Melite — V7TM5 — position and weather

sailwx.info

Track history (hours):
 
Tides and Currents Weather Stations Pressure Air Temp Water Temp Dewpoint Dewpoint Depression Visibility Wind Speed Wind Dir Waves Ship Positions

MV Melite

Last reported at 2015-Aug-15 15:07 UTC. Time now 2015-Aug-31 06:50 UTC.
Position N 50°20' W 001°07'.
Warning: this ship's position is 15 days out of date.

Length 225 m; draft 13.7 m.

Type: Cargo ship. MMSI: 538003832.

Date/timePositionNaut miles runAvg speedWind from/ knotsBaromVisibWave heightAir tempDewpointWater temp
2015-Aug-15 15:07N 50°20' W 001°07'4214.7
2015-Aug-15 12:15N 50°31' W 000°03'1013.3
2015-Aug-15 11:29N 50°34' E 000°12'1112.4
2015-Aug-15 10:34N 50°37' E 000°30'1211.9
2015-Aug-15 09:34N 50°43' E 000°46'1313.1
2015-Aug-15 08:34N 50°51' E 001°03'1515.0
2015-Aug-15 07:34N 51°01' E 001°21'1616.0
2015-Aug-15 06:34N 51°10' E 001°41'1514.6
2015-Aug-15 05:33N 51°23' E 001°54'1313.0
2015-Aug-15 04:33N 51°33' E 002°06'32412.9
2015-Aug-14 03:32N 56°07' E 007°00'1313.4
2015-Aug-14 02:33N 56°18' E 007°13'12213.3
2015-Aug-13 17:20N 57°45' E 009°50'1113.8
2015-Aug-13 16:34N 57°46' E 010°10'1413.5
2015-Aug-13 15:33N 57°47' E 010°36'1010.2
2015-Aug-13 14:34N 57°44' E 010°54'1212.2
2015-Aug-13 13:34N 57°36' E 011°10'1312.6
2015-Aug-13 12:34N 57°27' E 011°27'1312.7
2015-Aug-13 11:34N 57°15' E 011°35'1313.0
2015-Aug-13 10:33N 57°03' E 011°43'1312.8
2015-Aug-13 09:34N 56°51' E 011°50'1110.5
2015-Aug-13 08:33N 56°41' E 011°44'3411.4
2015-Aug-13 05:32N 56°14' E 011°04'4410.7
2015-Aug-13 01:23N 55°30' E 010°53'1011.0
2015-Aug-13 00:30N 55°22' E 011°02'8 8.3
2015-Aug-12 23:32N 55°14' E 011°06'9 9.1
2015-Aug-12 22:33N 55°06' E 010°59'10 9.7
2015-Aug-12 21:32N 54°57' E 010°54'1111.1
2015-Aug-12 20:33N 54°46' E 010°48'10 9.7
2015-Aug-12 19:34N 54°38' E 010°56'1111.0
2015-Aug-12 18:34N 54°35' E 011°14'1111.3
2015-Aug-12 17:34N 54°30' E 011°32'1110.8
2015-Aug-12 16:34N 54°27' E 011°50'1111.0
2015-Aug-12 15:33N 54°27' E 012°09'1110.1
2015-Aug-12 14:27N 54°37' E 012°18'1010.8
2015-Aug-12 13:33N 54°42' E 012°32'1212.4
2015-Aug-12 12:34N 54°48' E 012°50'1413.2
2015-Aug-12 11:32N 54°53' E 013°12'1313.5
2015-Aug-12 10:33N 54°57' E 013°34'1313.4
2015-Aug-12 09:34N 55°02' E 013°56'1312.7
2015-Aug-12 08:33N 55°11' E 014°11'1413.6
2015-Aug-12 07:33N 55°21' E 014°27'1313.4
2015-Aug-12 06:33N 55°29' E 014°46'1413.8
2015-Aug-12 05:34N 55°36' E 015°07'1312.9
2015-Aug-12 04:33N 55°36' E 015°30'1413.8
2015-Aug-12 03:34N 55°32' E 015°53'1413.7
2015-Aug-12 02:31N 55°28' E 016°17'1313.5
2015-Aug-12 01:33N 55°24' E 016°39'1413.7
2015-Aug-12 00:33N 55°20' E 017°02'1413.7
2015-Aug-11 23:33N 55°16' E 017°25'1413.8
2015-Aug-11 22:34N 55°12' E 017°48'1413.8
2015-Aug-11 21:33N 55°08' E 018°11'1413.9
2015-Aug-11 20:33N 55°03' E 018°34'1313.5
2015-Aug-11 19:34N 54°59' E 018°56'1413.9
2015-Aug-11 18:34N 54°51' E 019°16'1413.7
2015-Aug-11 17:33N 54°43' E 019°35'8 7.4
2015-Aug-11 16:32N 54°39' E 019°46'0 0.0
2015-Aug-11 15:32N 54°39' E 019°46'0 0.0
2015-Aug-11 14:32N 54°39' E 019°46'0 0.0
2015-Aug-11 13:32N 54°39' E 019°46'0 0.0
2015-Aug-11 12:32N 54°39' E 019°46'0 0.0
2015-Aug-11 11:29N 54°39' E 019°46'0 0.0
2015-Aug-11 10:32N 54°39' E 019°46'0 0.0
2015-Aug-11 09:29N 54°39' E 019°46'0 0.0
2015-Aug-11 08:32N 54°39' E 019°46'0 0.0
2015-Aug-11 07:32N 54°39' E 019°46'0 0.0
2015-Aug-11 06:32N 54°39' E 019°46'0 0.0
2015-Aug-11 05:32N 54°39' E 019°46'0 0.0
2015-Aug-11 04:29N 54°39' E 019°46'0 0.1
2015-Aug-11 03:32N 54°39' E 019°46'0 0.0
2015-Aug-11 02:32N 54°39' E 019°46'0 0.0
2015-Aug-11 01:29N 54°39' E 019°46'0 0.4
2015-Aug-11 00:33N 54°39' E 019°45'6 5.6
2015-Aug-10 23:33N 54°43' E 019°38'1110.6
2015-Aug-10 22:34N 54°53' E 019°33'1312.7
2015-Aug-10 21:33N 55°05' E 019°41'1413.8
2015-Aug-10 20:34N 55°14' E 019°58'1413.8
2015-Aug-10 19:33N 55°24' E 020°15'1413.9
2015-Aug-10 18:33N 55°34' E 020°32'1413.6
2015-Aug-10 17:33N 55°44' E 020°49'9 9.2
2015-Aug-10 16:34N 55°44' E 021°05'1 0.8
2015-Aug-10 15:32N 55°43' E 021°07'0 0.0
2015-Aug-10 01:06N 55°43' E 021°07'0 0.0
2015-Aug-09 23:22N 55°43' E 021°07'0 0.0
2015-Aug-09 22:33N 55°43' E 021°07'0 0.0
2015-Aug-09 21:32N 55°43' E 021°07'0 0.0
2015-Aug-09 20:33N 55°43' E 021°07'0 0.0
2015-Aug-09 19:33N 55°43' E 021°07'0 0.0
2015-Aug-08 02:22N 55°43' E 021°07'0 0.0
2015-Aug-08 01:34N 55°43' E 021°07'0 0.0
2015-Aug-08 00:33N 55°43' E 021°07'0 0.0
2015-Aug-07 09:33N 55°43' E 021°07'0 0.0
2015-Aug-07 08:33N 55°43' E 021°07'0 0.0
2015-Aug-07 07:34N 55°43' E 021°07'0 0.0
2015-Aug-07 06:33N 55°43' E 021°07'0 0.0
2015-Aug-07 05:33N 55°43' E 021°07'0 0.0
2015-Aug-07 04:12N 55°43' E 021°07'0 0.0
2015-Aug-07 03:34N 55°43' E 021°07'3 0.4
2015-Aug-06 19:08N 55°40' E 021°09'0 0.0
2015-Aug-06 18:33N 55°40' E 021°09'0 0.0
2015-Aug-06 17:33N 55°40' E 021°09'0 0.0
2015-Aug-06 16:33N 55°40' E 021°09'0 0.0
2015-Aug-06 15:33N 55°40' E 021°09'0 0.0
2015-Aug-06 14:31N 55°40' E 021°09'  
Track history (hours):
 
Tides and Currents Weather Stations Pressure Air Temp Water Temp Dewpoint Dewpoint Depression Visibility Wind Speed Wind Dir Waves Ship Positions

MV Melite

Last reported at 2015-Aug-15 15:07 UTC. Time now 2015-Aug-31 06:50 UTC.
Position N 50°20' W 001°07'.
Warning: this ship's position is 15 days out of date.

Length 225 m; draft 13.7 m.

Type: Cargo ship. MMSI: 538003832.

Date/timePositionNaut miles runAvg speedWind from/ knotsBaromVisibWave heightAir tempDewpointWater temp
2015-Aug-15 15:07N 50°20' W 001°07'4214.7
2015-Aug-15 12:15N 50°31' W 000°03'1013.3
2015-Aug-15 11:29N 50°34' E 000°12'1112.4
2015-Aug-15 10:34N 50°37' E 000°30'1211.9
2015-Aug-15 09:34N 50°43' E 000°46'1313.1
2015-Aug-15 08:34N 50°51' E 001°03'1515.0
2015-Aug-15 07:34N 51°01' E 001°21'1616.0
2015-Aug-15 06:34N 51°10' E 001°41'1514.6
2015-Aug-15 05:33N 51°23' E 001°54'1313.0
2015-Aug-15 04:33N 51°33' E 002°06'32412.9
2015-Aug-14 03:32N 56°07' E 007°00'1313.4
2015-Aug-14 02:33N 56°18' E 007°13'12213.3
2015-Aug-13 17:20N 57°45' E 009°50'1113.8
2015-Aug-13 16:34N 57°46' E 010°10'1413.5
2015-Aug-13 15:33N 57°47' E 010°36'1010.2
2015-Aug-13 14:34N 57°44' E 010°54'1212.2
2015-Aug-13 13:34N 57°36' E 011°10'1312.6
2015-Aug-13 12:34N 57°27' E 011°27'1312.7
2015-Aug-13 11:34N 57°15' E 011°35'1313.0
2015-Aug-13 10:33N 57°03' E 011°43'1312.8
2015-Aug-13 09:34N 56°51' E 011°50'1110.5
2015-Aug-13 08:33N 56°41' E 011°44'3411.4
2015-Aug-13 05:32N 56°14' E 011°04'4410.7
2015-Aug-13 01:23N 55°30' E 010°53'1011.0
2015-Aug-13 00:30N 55°22' E 011°02'8 8.3
2015-Aug-12 23:32N 55°14' E 011°06'9 9.1
2015-Aug-12 22:33N 55°06' E 010°59'10 9.7
2015-Aug-12 21:32N 54°57' E 010°54'1111.1
2015-Aug-12 20:33N 54°46' E 010°48'10 9.7
2015-Aug-12 19:34N 54°38' E 010°56'1111.0
2015-Aug-12 18:34N 54°35' E 011°14'1111.3
2015-Aug-12 17:34N 54°30' E 011°32'1110.8
2015-Aug-12 16:34N 54°27' E 011°50'1111.0
2015-Aug-12 15:33N 54°27' E 012°09'1110.1
2015-Aug-12 14:27N 54°37' E 012°18'1010.8
2015-Aug-12 13:33N 54°42' E 012°32'1212.4
2015-Aug-12 12:34N 54°48' E 012°50'1413.2
2015-Aug-12 11:32N 54°53' E 013°12'1313.5
2015-Aug-12 10:33N 54°57' E 013°34'1313.4
2015-Aug-12 09:34N 55°02' E 013°56'1312.7
2015-Aug-12 08:33N 55°11' E 014°11'1413.6
2015-Aug-12 07:33N 55°21' E 014°27'1313.4
2015-Aug-12 06:33N 55°29' E 014°46'1413.8
2015-Aug-12 05:34N 55°36' E 015°07'1312.9
2015-Aug-12 04:33N 55°36' E 015°30'1413.8
2015-Aug-12 03:34N 55°32' E 015°53'1413.7
2015-Aug-12 02:31N 55°28' E 016°17'1313.5
2015-Aug-12 01:33N 55°24' E 016°39'1413.7
2015-Aug-12 00:33N 55°20' E 017°02'1413.7
2015-Aug-11 23:33N 55°16' E 017°25'1413.8
2015-Aug-11 22:34N 55°12' E 017°48'1413.8
2015-Aug-11 21:33N 55°08' E 018°11'1413.9
2015-Aug-11 20:33N 55°03' E 018°34'1313.5
2015-Aug-11 19:34N 54°59' E 018°56'1413.9
2015-Aug-11 18:34N 54°51' E 019°16'1413.7
2015-Aug-11 17:33N 54°43' E 019°35'8 7.4
2015-Aug-11 16:32N 54°39' E 019°46'0 0.0
2015-Aug-11 15:32N 54°39' E 019°46'0 0.0
2015-Aug-11 14:32N 54°39' E 019°46'0 0.0
2015-Aug-11 13:32N 54°39' E 019°46'0 0.0
2015-Aug-11 12:32N 54°39' E 019°46'0 0.0
2015-Aug-11 11:29N 54°39' E 019°46'0 0.0
2015-Aug-11 10:32N 54°39' E 019°46'0 0.0
2015-Aug-11 09:29N 54°39' E 019°46'0 0.0
2015-Aug-11 08:32N 54°39' E 019°46'0 0.0
2015-Aug-11 07:32N 54°39' E 019°46'0 0.0
2015-Aug-11 06:32N 54°39' E 019°46'0 0.0
2015-Aug-11 05:32N 54°39' E 019°46'0 0.0
2015-Aug-11 04:29N 54°39' E 019°46'0 0.1
2015-Aug-11 03:32N 54°39' E 019°46'0 0.0
2015-Aug-11 02:32N 54°39' E 019°46'0 0.0
2015-Aug-11 01:29N 54°39' E 019°46'0 0.4
2015-Aug-11 00:33N 54°39' E 019°45'6 5.6
2015-Aug-10 23:33N 54°43' E 019°38'1110.6
2015-Aug-10 22:34N 54°53' E 019°33'1312.7
2015-Aug-10 21:33N 55°05' E 019°41'1413.8
2015-Aug-10 20:34N 55°14' E 019°58'1413.8
2015-Aug-10 19:33N 55°24' E 020°15'1413.9
2015-Aug-10 18:33N 55°34' E 020°32'1413.6
2015-Aug-10 17:33N 55°44' E 020°49'9 9.2
2015-Aug-10 16:34N 55°44' E 021°05'1 0.8
2015-Aug-10 15:32N 55°43' E 021°07'0 0.0
2015-Aug-10 01:06N 55°43' E 021°07'0 0.0
2015-Aug-09 23:22N 55°43' E 021°07'0 0.0
2015-Aug-09 22:33N 55°43' E 021°07'0 0.0
2015-Aug-09 21:32N 55°43' E 021°07'0 0.0
2015-Aug-09 20:33N 55°43' E 021°07'0 0.0
2015-Aug-09 19:33N 55°43' E 021°07'0 0.0
2015-Aug-08 02:22N 55°43' E 021°07'0 0.0
2015-Aug-08 01:34N 55°43' E 021°07'0 0.0
2015-Aug-08 00:33N 55°43' E 021°07'0 0.0
2015-Aug-07 09:33N 55°43' E 021°07'0 0.0
2015-Aug-07 08:33N 55°43' E 021°07'0 0.0
2015-Aug-07 07:34N 55°43' E 021°07'0 0.0
2015-Aug-07 06:33N 55°43' E 021°07'0 0.0
2015-Aug-07 05:33N 55°43' E 021°07'0 0.0
2015-Aug-07 04:12N 55°43' E 021°07'0 0.0
2015-Aug-07 03:34N 55°43' E 021°07'3 0.4
2015-Aug-06 19:08N 55°40' E 021°09'0 0.0
2015-Aug-06 18:33N 55°40' E 021°09'0 0.0
2015-Aug-06 17:33N 55°40' E 021°09'0 0.0
2015-Aug-06 16:33N 55°40' E 021°09'0 0.0
2015-Aug-06 15:33N 55°40' E 021°09'0 0.0
2015-Aug-06 14:31N 55°40' E 021°09'  

Dump ship's entire track history